M. Luther — WDC7372 — position and weather

sailwx.info

Track history (hours):
 
Tides and Currents Weather Stations Pressure Air Temp Water Temp Dewpoint Dewpoint Depression Visibility Wind Speed Wind Dir Waves Ship Positions

M. Luther

Owner: Salmon Bay Barge Line, Inc., Seattle, WA. More information available from US FCC via Universal Licensing System and Coast Guard Vessel Documentation Center.

Last reported at 2015-Jan-27 13:33 UTC. Time now 2015-Jan-27 14:32 UTC.
Position N 47°59' W 122°37'.

Length 28 m; draft 4.1 m.

Type: Tug. MMSI: 367070410.

Date/timePositionNaut miles runAvg speedWind from/ knotsBaromVisibWave heightAir tempDewpointWater temp
2015-Jan-27 13:33N 47°59' W 122°37'9 6.7
2015-Jan-27 12:16N 48°07' W 122°41'5 6.4
2015-Jan-27 11:30N 48°11' W 122°46'7 6.1
2015-Jan-27 10:19N 48°18' W 122°48'6 7.3
2015-Jan-27 09:33N 48°23' W 122°45'7 7.4
2015-Jan-27 08:33N 48°31' W 122°45'7 6.7
2015-Jan-27 07:33N 48°37' W 122°45'6 5.6
2015-Jan-27 06:33N 48°43' W 122°46'6 6.0
2015-Jan-27 05:32N 48°47' W 122°53'5 6.8
2015-Jan-27 04:50N 48°50' W 122°59'2 6.6
2015-Jan-27 04:33N 48°51' W 123°01'6 6.5
2015-Jan-27 03:33N 48°55' W 123°09'7 6.7
2015-Jan-27 02:33N 48°59' W 123°16'7 6.7
2015-Jan-27 01:33N 49°05' W 123°21'8 7.9
2015-Jan-27 00:33N 49°06' W 123°09'6 5.6
2015-Jan-26 23:28N 49°09' W 123°00'0 0.0
2015-Jan-26 22:31N 49°09' W 123°00'0 0.0
2015-Jan-26 21:31N 49°09' W 123°00'0 0.0
2015-Jan-26 20:31N 49°09' W 123°00'0 0.0
2015-Jan-26 19:31N 49°09' W 123°00'0 0.0
2015-Jan-26 17:07N 49°09' W 123°00'0 0.0
2015-Jan-26 16:31N 49°09' W 123°00'0 0.0
2015-Jan-26 15:25N 49°09' W 123°00'0 0.0
2015-Jan-26 14:28N 49°09' W 123°00'0 0.0
2015-Jan-26 13:31N 49°09' W 123°00'0 0.0
2015-Jan-26 12:33N 49°09' W 123°00'0 0.0
2015-Jan-26 11:33N 49°09' W 123°00'0 0.0
2015-Jan-26 10:33N 49°09' W 123°00'0 0.0
2015-Jan-26 09:33N 49°09' W 123°00'0 0.0
2015-Jan-26 08:33N 49°09' W 123°00'0 0.0
2015-Jan-26 07:30N 49°09' W 123°00'0 0.0
2015-Jan-26 06:33N 49°09' W 123°00'0 0.0
2015-Jan-26 05:33N 49°09' W 123°00'0 0.0
2015-Jan-26 04:30N 49°09' W 123°00'0 0.0
2015-Jan-26 03:30N 49°09' W 123°00'0 0.0
2015-Jan-26 02:30N 49°09' W 123°00'0 0.0
2015-Jan-25 21:27N 49°09' W 123°00'0 0.0
2015-Jan-25 20:33N 49°09' W 123°00'0 0.0
2015-Jan-25 19:18N 49°09' W 123°00'0 0.0
2015-Jan-25 18:30N 49°09' W 123°00'0 0.0
2015-Jan-25 15:06N 49°09' W 123°00'0 0.0
2015-Jan-24 19:14N 49°09' W 123°00'2 3.3
2015-Jan-24 18:33N 49°08' W 123°03'6 5.9
2015-Jan-24 17:34N 49°07' W 123°12'5 5.2
2015-Jan-24 16:34N 49°05' W 123°19'4 4.5
2015-Jan-24 15:33N 49°02' W 123°16'5 5.1
2015-Jan-24 14:33N 48°58' W 123°10'6 5.8
2015-Jan-24 13:33N 48°54' W 123°03'6 5.6
2015-Jan-24 12:34N 48°51' W 122°57'5 4.6
2015-Jan-24 11:33N 48°48' W 122°51'5 4.9
2015-Jan-24 10:33N 48°45' W 122°45'6 5.6
2015-Jan-24 09:34N 48°40' W 122°43'5 4.8
2015-Jan-24 08:33N 48°35' W 122°45'2 3.6
2015-Jan-24 07:59N 48°33' W 122°45'1 3.3
2015-Jan-24 07:33N 48°32' W 122°45'3 3.1
2015-Jan-24 06:33N 48°29' W 122°44'3 2.9
2015-Jan-24 05:33N 48°26' W 122°44'6 4.3
2015-Jan-24 04:13N 48°20' W 122°45'9 5.0
2015-Jan-24 02:30N 48°11' W 122°45'7 5.7
2015-Jan-24 01:16N 48°06' W 122°39'4 6.7
2015-Jan-24 00:37N 48°02' W 122°37'1 4.5
2015-Jan-24 00:30N 48°01' W 122°37'4 5.7
2015-Jan-23 23:53N 47°58' W 122°34'2 5.1
2015-Jan-23 23:33N 47°57' W 122°32'1 5.8
2015-Jan-23 23:22N 47°57' W 122°31'5 6.6
2015-Jan-23 22:33N 47°52' W 122°27'0 6.7
2015-Jan-23 22:32N 47°52' W 122°27'8 7.7
2015-Jan-23 21:33N 47°44' W 122°26'0 8.3
2015-Jan-23 21:32N 47°44' W 122°26'8 7.3
2015-Jan-23 20:30N 47°37' W 122°23'4 1.7
2015-Jan-23 18:19N 47°33' W 122°21'0 0.0
2015-Jan-23 05:30N 47°33' W 122°21'0 0.0
2015-Jan-23 05:21N 47°33' W 122°21'0 0.0
2015-Jan-23 04:33N 47°33' W 122°21'0 0.0
2015-Jan-23 04:21N 47°33' W 122°21'0 0.0
2015-Jan-23 03:27N 47°33' W 122°21'0 0.4
2015-Jan-23 03:21N 47°33' W 122°21'0 0.0
2015-Jan-23 02:12N 47°33' W 122°21'0 0.0
2015-Jan-22 19:12N 47°33' W 122°21'0 0.4
2015-Jan-22 19:06N 47°33' W 122°21'0 0.1
2015-Jan-22 18:33N 47°33' W 122°21'0 0.2
2015-Jan-22 18:21N 47°33' W 122°21'0 0.1
2015-Jan-22 17:33N 47°33' W 122°21'0 0.0
2015-Jan-22 17:20N 47°33' W 122°21'0 0.0
2015-Jan-22 16:33N 47°33' W 122°21'0 0.0
2015-Jan-22 15:14N 47°33' W 122°21'0 0.0
2015-Jan-22 14:35N 47°33' W 122°21'0 0.0
2015-Jan-22 14:23N 47°33' W 122°21'0 0.0
2015-Jan-22 13:50N 47°33' W 122°21'0 0.0
2015-Jan-22 13:32N 47°33' W 122°21'0 0.0
2015-Jan-22 12:50N 47°33' W 122°21'0 0.0
2015-Jan-22 12:20N 47°33' W 122°21'0 0.0
2015-Jan-22 12:20N 47°33' W 122°21'0 0.0
2015-Jan-22 11:20N 47°33' W 122°21'0 0.0
2015-Jan-22 11:20N 47°33' W 122°21'0 0.0
2015-Jan-22 07:14N 47°33' W 122°21'0 0.0
2015-Jan-22 07:14N 47°33' W 122°21'0 0.0
2015-Jan-22 06:59N 47°33' W 122°21'0 0.0
2015-Jan-22 06:17N 47°33' W 122°21'0 0.0
2015-Jan-22 04:11N 47°33' W 122°21'0 0.0
2015-Jan-21 22:26N 47°33' W 122°21'0 0.0
2015-Jan-21 21:20N 47°33' W 122°21'0 0.0
2015-Jan-21 21:20N 47°33' W 122°21'0 0.0
2015-Jan-21 20:32N 47°33' W 122°21'0 0.0
2015-Jan-21 19:35N 47°33' W 122°21'0 0.0
2015-Jan-21 19:32N 47°33' W 122°21'0 0.0
2015-Jan-21 19:20N 47°33' W 122°21'0 0.0
2015-Jan-21 18:32N 47°33' W 122°21'0 0.0
2015-Jan-21 18:05N 47°33' W 122°21'0 0.0
2015-Jan-21 17:32N 47°33' W 122°21'0 0.0
2015-Jan-21 17:29N 47°33' W 122°21'0 0.0
2015-Jan-21 16:32N 47°33' W 122°21'0 0.1
2015-Jan-21 16:29N 47°33' W 122°21'0 0.0
2015-Jan-21 15:29N 47°33' W 122°21'0 0.0
2015-Jan-21 14:32N 47°33' W 122°21'0 0.0
2015-Jan-21 14:29N 47°33' W 122°21'0 0.0
2015-Jan-21 13:29N 47°33' W 122°21'0 0.0
2015-Jan-21 12:32N 47°33' W 122°21'0 0.0
2015-Jan-21 12:29N 47°33' W 122°21'0 0.0
2015-Jan-21 11:32N 47°33' W 122°21'0 0.0
2015-Jan-21 11:22N 47°33' W 122°21'0 0.0
2015-Jan-21 10:29N 47°33' W 122°21'0 0.1
2015-Jan-21 10:22N 47°33' W 122°21'0 0.0
2015-Jan-21 09:32N 47°33' W 122°21'0 0.0
2015-Jan-21 09:22N 47°33' W 122°21'0 0.0
2015-Jan-21 08:29N 47°33' W 122°21'0 0.1
2015-Jan-21 08:22N 47°33' W 122°21'0 0.0
2015-Jan-21 06:52N 47°33' W 122°21'0 0.0
2015-Jan-21 06:29N 47°33' W 122°21'0 0.0
2015-Jan-21 05:23N 47°33' W 122°21'0 0.0
2015-Jan-21 05:22N 47°33' W 122°21'0 0.0
2015-Jan-21 03:04N 47°33' W 122°21'0 0.1
2015-Jan-21 02:43N 47°33' W 122°21'0 0.0
2015-Jan-21 02:31N 47°33' W 122°21'0 0.0
2015-Jan-21 02:28N 47°33' W 122°21'0 0.0
2015-Jan-21 01:31N 47°33' W 122°21'0 0.0
2015-Jan-21 01:07N 47°33' W 122°21'0 0.0
2015-Jan-21 00:31N 47°33' W 122°21'0 0.0
2015-Jan-21 00:22N 47°33' W 122°21'0 0.0
2015-Jan-20 23:28N 47°33' W 122°21'0 0.0
2015-Jan-20 23:07N 47°33' W 122°21'0 0.0
2015-Jan-20 22:22N 47°33' W 122°21'0 0.0
2015-Jan-20 22:22N 47°33' W 122°21'0 0.0
2015-Jan-20 20:31N 47°33' W 122°21'0 0.0
2015-Jan-20 20:31N 47°33' W 122°21'0 0.0
2015-Jan-20 19:31N 47°33' W 122°21'0 0.0
2015-Jan-20 19:31N 47°33' W 122°21'0 0.0
2015-Jan-20 18:28N 47°33' W 122°21'0 0.0
2015-Jan-20 17:10N 47°33' W 122°21'0 0.0
2015-Jan-20 16:22N 47°33' W 122°21'0 0.0
2015-Jan-20 15:19N 47°33' W 122°21'0 0.0
2015-Jan-20 14:19N 47°33' W 122°21'0 0.0
2015-Jan-20 14:01N 47°33' W 122°21'0 0.0
2015-Jan-20 12:13N 47°33' W 122°21'0 0.0
2015-Jan-20 08:37N 47°33' W 122°21'0 0.0
2015-Jan-20 07:52N 47°33' W 122°21'0 0.0
2015-Jan-20 07:16N 47°33' W 122°21'0 0.0
2015-Jan-20 06:58N 47°33' W 122°21'0 0.0
2015-Jan-20 06:22N 47°33' W 122°21'0 0.0
2015-Jan-20 05:31N 47°33' W 122°21'0 0.0
2015-Jan-20 05:28N 47°33' W 122°21'0 0.0
2015-Jan-20 04:04N 47°33' W 122°21'0 0.0
2015-Jan-20 04:01N 47°33' W 122°21'0 0.0
2015-Jan-20 03:32N 47°33' W 122°21'0 0.0
2015-Jan-20 03:31N 47°33' W 122°21'0 0.0
2015-Jan-20 02:30N 47°33' W 122°21'0 0.0
2015-Jan-20 02:16N 47°33' W 122°21'0 0.0
2015-Jan-20 01:30N 47°33' W 122°21'0 0.0
2015-Jan-20 01:19N 47°33' W 122°21'0 0.0
2015-Jan-20 00:31N 47°33' W 122°21'0 0.0
2015-Jan-20 00:30N 47°33' W 122°21'0 0.0
2015-Jan-19 23:28N 47°33' W 122°21'0 0.0
2015-Jan-19 23:15N 47°33' W 122°21'0 0.0
2015-Jan-19 22:28N 47°33' W 122°21'0 0.0
2015-Jan-19 22:15N 47°33' W 122°21'0 0.0
2015-Jan-19 21:28N 47°33' W 122°21'0 0.0
2015-Jan-19 21:24N 47°33' W 122°21'0 0.0
2015-Jan-19 20:31N 47°33' W 122°21'0 0.0
2015-Jan-19 20:30N 47°33' W 122°21'0 0.0
2015-Jan-19 19:28N 47°33' W 122°21'0 0.0
2015-Jan-19 19:09N 47°33' W 122°21'0 0.0
2015-Jan-19 18:31N 47°33' W 122°21'0 0.0
2015-Jan-19 18:24N 47°33' W 122°21'0 0.0
2015-Jan-19 17:28N 47°33' W 122°21'0 0.0
2015-Jan-19 14:21N 47°33' W 122°21'0 0.0
2015-Jan-19 14:18N 47°33' W 122°21'0 0.0
2015-Jan-19 13:30N 47°33' W 122°21'0 0.0
2015-Jan-19 13:24N 47°33' W 122°21'0 0.0
2015-Jan-19 12:33N 47°33' W 122°21'0 0.0
2015-Jan-19 12:18N 47°33' W 122°21'0 0.0
2015-Jan-19 11:30N 47°33' W 122°21'0 0.0
2015-Jan-19 10:24N 47°33' W 122°21'0 0.0
2015-Jan-19 10:03N 47°33' W 122°21'0 0.0
2015-Jan-19 09:33N 47°33' W 122°21'0 0.0
2015-Jan-19 09:03N 47°33' W 122°21'0 0.0
2015-Jan-19 07:03N 47°33' W 122°21'0 0.1
2015-Jan-19 07:00N 47°33' W 122°21'0 0.0
2015-Jan-19 06:33N 47°33' W 122°21'0 0.0
2015-Jan-19 05:30N 47°33' W 122°21'0 0.0
2015-Jan-19 05:30N 47°33' W 122°21'0 0.0
2015-Jan-19 04:27N 47°33' W 122°21'0 0.0
2015-Jan-19 03:24N 47°33' W 122°21'0 0.0
2015-Jan-19 02:21N 47°33' W 122°21'0 0.0
2015-Jan-19 01:18N 47°33' W 122°21'0 0.0
2015-Jan-19 01:00N 47°33' W 122°21'0 0.0
2015-Jan-19 00:30N 47°33' W 122°21'0 0.0
2015-Jan-19 00:30N 47°33' W 122°21'0 0.0
2015-Jan-18 23:12N 47°33' W 122°21'0 0.0
2015-Jan-18 21:12N 47°33' W 122°21'0 0.0
2015-Jan-18 19:54N 47°33' W 122°21'0 0.0
2015-Jan-18 17:30N 47°33' W 122°21'0 0.0
2015-Jan-18 17:09N 47°33' W 122°21'0 0.0
2015-Jan-18 16:33N 47°33' W 122°21'0 0.0
2015-Jan-18 16:24N 47°33' W 122°21'0 0.0
2015-Jan-18 15:33N 47°33' W 122°21'0 0.0
2015-Jan-18 15:09N 47°33' W 122°21'0 0.0
2015-Jan-18 14:33N 47°33' W 122°21'0 0.0
2015-Jan-18 14:24N 47°33' W 122°21'0 0.0
2015-Jan-18 13:33N 47°33' W 122°21'0 0.0
2015-Jan-18 13:24N 47°33' W 122°21'0 0.0
2015-Jan-18 12:33N 47°33' W 122°21'0 0.0
2015-Jan-18 12:23N 47°33' W 122°21'0 0.0
2015-Jan-18 11:33N 47°33' W 122°21'0 0.0
2015-Jan-18 11:23N 47°33' W 122°21'0 0.0
2015-Jan-18 10:33N 47°33' W 122°21'0 0.0
2015-Jan-18 10:23N 47°33' W 122°21'0 0.0
2015-Jan-18 09:33N 47°33' W 122°21'0 0.0
2015-Jan-18 09:08N 47°33' W 122°21'0 0.0
2015-Jan-18 08:33N 47°33' W 122°21'0 0.0
2015-Jan-18 08:23N 47°33' W 122°21'0 0.0
2015-Jan-18 07:33N 47°33' W 122°21'0 0.0
2015-Jan-18 07:08N 47°33' W 122°21'0 0.0
2015-Jan-18 06:33N 47°33' W 122°21'0 0.0
2015-Jan-18 06:32N 47°33' W 122°21'0 0.0
2015-Jan-18 05:26N 47°33' W 122°21'0 0.0
2015-Jan-18 05:17N 47°33' W 122°21'0 0.0
2015-Jan-18 03:56N 47°33' W 122°21'0 0.0
2015-Jan-18 03:29N 47°33' W 122°21'0 0.0
2015-Jan-18 03:26N 47°33' W 122°21'0 0.0
2015-Jan-18 02:26N 47°33' W 122°21'0 0.0
2015-Jan-18 02:20N 47°33' W 122°21'0 0.0
2015-Jan-18 01:32N 47°33' W 122°21'0 0.0
2015-Jan-18 01:14N 47°33' W 122°21'0 0.0
2015-Jan-17 20:14N 47°33' W 122°21'0 0.0
2015-Jan-17 20:14N 47°33' W 122°21'0 0.0
2015-Jan-17 19:32N 47°33' W 122°21'0 0.1
2015-Jan-17 19:29N 47°33' W 122°21'0 0.0
2015-Jan-17 18:32N 47°33' W 122°21'0 0.0
2015-Jan-17 18:29N 47°33' W 122°21'0 0.0
2015-Jan-17 17:32N 47°33' W 122°21'0 0.1
2015-Jan-17 17:29N 47°33' W 122°21'0 0.0
2015-Jan-17 15:41N 47°33' W 122°21'0 0.0
2015-Jan-17 15:29N 47°33' W 122°21'0 0.0
2015-Jan-17 15:26N 47°33' W 122°21'0 0.0
2015-Jan-17 14:23N 47°33' W 122°21'0 0.0
2015-Jan-17 14:05N 47°33' W 122°21'  
Track history (hours):
 
Tides and Currents Weather Stations Pressure Air Temp Water Temp Dewpoint Dewpoint Depression Visibility Wind Speed Wind Dir Waves Ship Positions

M. Luther

Owner: Salmon Bay Barge Line, Inc., Seattle, WA. More information available from US FCC via Universal Licensing System and Coast Guard Vessel Documentation Center.

Last reported at 2015-Jan-27 13:33 UTC. Time now 2015-Jan-27 14:32 UTC.
Position N 47°59' W 122°37'.

Length 28 m; draft 4.1 m.

Type: Tug. MMSI: 367070410.

Date/timePositionNaut miles runAvg speedWind from/ knotsBaromVisibWave heightAir tempDewpointWater temp
2015-Jan-27 13:33N 47°59' W 122°37'9 6.7
2015-Jan-27 12:16N 48°07' W 122°41'5 6.4
2015-Jan-27 11:30N 48°11' W 122°46'7 6.1
2015-Jan-27 10:19N 48°18' W 122°48'6 7.3
2015-Jan-27 09:33N 48°23' W 122°45'7 7.4
2015-Jan-27 08:33N 48°31' W 122°45'7 6.7
2015-Jan-27 07:33N 48°37' W 122°45'6 5.6
2015-Jan-27 06:33N 48°43' W 122°46'6 6.0
2015-Jan-27 05:32N 48°47' W 122°53'5 6.8
2015-Jan-27 04:50N 48°50' W 122°59'2 6.6
2015-Jan-27 04:33N 48°51' W 123°01'6 6.5
2015-Jan-27 03:33N 48°55' W 123°09'7 6.7
2015-Jan-27 02:33N 48°59' W 123°16'7 6.7
2015-Jan-27 01:33N 49°05' W 123°21'8 7.9
2015-Jan-27 00:33N 49°06' W 123°09'6 5.6
2015-Jan-26 23:28N 49°09' W 123°00'0 0.0
2015-Jan-26 22:31N 49°09' W 123°00'0 0.0
2015-Jan-26 21:31N 49°09' W 123°00'0 0.0
2015-Jan-26 20:31N 49°09' W 123°00'0 0.0
2015-Jan-26 19:31N 49°09' W 123°00'0 0.0
2015-Jan-26 17:07N 49°09' W 123°00'0 0.0
2015-Jan-26 16:31N 49°09' W 123°00'0 0.0
2015-Jan-26 15:25N 49°09' W 123°00'0 0.0
2015-Jan-26 14:28N 49°09' W 123°00'0 0.0
2015-Jan-26 13:31N 49°09' W 123°00'0 0.0
2015-Jan-26 12:33N 49°09' W 123°00'0 0.0
2015-Jan-26 11:33N 49°09' W 123°00'0 0.0
2015-Jan-26 10:33N 49°09' W 123°00'0 0.0
2015-Jan-26 09:33N 49°09' W 123°00'0 0.0
2015-Jan-26 08:33N 49°09' W 123°00'0 0.0
2015-Jan-26 07:30N 49°09' W 123°00'0 0.0
2015-Jan-26 06:33N 49°09' W 123°00'0 0.0
2015-Jan-26 05:33N 49°09' W 123°00'0 0.0
2015-Jan-26 04:30N 49°09' W 123°00'0 0.0
2015-Jan-26 03:30N 49°09' W 123°00'0 0.0
2015-Jan-26 02:30N 49°09' W 123°00'0 0.0
2015-Jan-25 21:27N 49°09' W 123°00'0 0.0
2015-Jan-25 20:33N 49°09' W 123°00'0 0.0
2015-Jan-25 19:18N 49°09' W 123°00'0 0.0
2015-Jan-25 18:30N 49°09' W 123°00'0 0.0
2015-Jan-25 15:06N 49°09' W 123°00'0 0.0
2015-Jan-24 19:14N 49°09' W 123°00'2 3.3
2015-Jan-24 18:33N 49°08' W 123°03'6 5.9
2015-Jan-24 17:34N 49°07' W 123°12'5 5.2
2015-Jan-24 16:34N 49°05' W 123°19'4 4.5
2015-Jan-24 15:33N 49°02' W 123°16'5 5.1
2015-Jan-24 14:33N 48°58' W 123°10'6 5.8
2015-Jan-24 13:33N 48°54' W 123°03'6 5.6
2015-Jan-24 12:34N 48°51' W 122°57'5 4.6
2015-Jan-24 11:33N 48°48' W 122°51'5 4.9
2015-Jan-24 10:33N 48°45' W 122°45'6 5.6
2015-Jan-24 09:34N 48°40' W 122°43'5 4.8
2015-Jan-24 08:33N 48°35' W 122°45'2 3.6
2015-Jan-24 07:59N 48°33' W 122°45'1 3.3
2015-Jan-24 07:33N 48°32' W 122°45'3 3.1
2015-Jan-24 06:33N 48°29' W 122°44'3 2.9
2015-Jan-24 05:33N 48°26' W 122°44'6 4.3
2015-Jan-24 04:13N 48°20' W 122°45'9 5.0
2015-Jan-24 02:30N 48°11' W 122°45'7 5.7
2015-Jan-24 01:16N 48°06' W 122°39'4 6.7
2015-Jan-24 00:37N 48°02' W 122°37'1 4.5
2015-Jan-24 00:30N 48°01' W 122°37'4 5.7
2015-Jan-23 23:53N 47°58' W 122°34'2 5.1
2015-Jan-23 23:33N 47°57' W 122°32'1 5.8
2015-Jan-23 23:22N 47°57' W 122°31'5 6.6
2015-Jan-23 22:33N 47°52' W 122°27'0 6.7
2015-Jan-23 22:32N 47°52' W 122°27'8 7.7
2015-Jan-23 21:33N 47°44' W 122°26'0 8.3
2015-Jan-23 21:32N 47°44' W 122°26'8 7.3
2015-Jan-23 20:30N 47°37' W 122°23'4 1.7
2015-Jan-23 18:19N 47°33' W 122°21'0 0.0
2015-Jan-23 05:30N 47°33' W 122°21'0 0.0
2015-Jan-23 05:21N 47°33' W 122°21'0 0.0
2015-Jan-23 04:33N 47°33' W 122°21'0 0.0
2015-Jan-23 04:21N 47°33' W 122°21'0 0.0
2015-Jan-23 03:27N 47°33' W 122°21'0 0.4
2015-Jan-23 03:21N 47°33' W 122°21'0 0.0
2015-Jan-23 02:12N 47°33' W 122°21'0 0.0
2015-Jan-22 19:12N 47°33' W 122°21'0 0.4
2015-Jan-22 19:06N 47°33' W 122°21'0 0.1
2015-Jan-22 18:33N 47°33' W 122°21'0 0.2
2015-Jan-22 18:21N 47°33' W 122°21'0 0.1
2015-Jan-22 17:33N 47°33' W 122°21'0 0.0
2015-Jan-22 17:20N 47°33' W 122°21'0 0.0
2015-Jan-22 16:33N 47°33' W 122°21'0 0.0
2015-Jan-22 15:14N 47°33' W 122°21'0 0.0
2015-Jan-22 14:35N 47°33' W 122°21'0 0.0
2015-Jan-22 14:23N 47°33' W 122°21'0 0.0
2015-Jan-22 13:50N 47°33' W 122°21'0 0.0
2015-Jan-22 13:32N 47°33' W 122°21'0 0.0
2015-Jan-22 12:50N 47°33' W 122°21'0 0.0
2015-Jan-22 12:20N 47°33' W 122°21'0 0.0
2015-Jan-22 12:20N 47°33' W 122°21'0 0.0
2015-Jan-22 11:20N 47°33' W 122°21'0 0.0
2015-Jan-22 11:20N 47°33' W 122°21'0 0.0
2015-Jan-22 07:14N 47°33' W 122°21'0 0.0
2015-Jan-22 07:14N 47°33' W 122°21'0 0.0
2015-Jan-22 06:59N 47°33' W 122°21'0 0.0
2015-Jan-22 06:17N 47°33' W 122°21'0 0.0
2015-Jan-22 04:11N 47°33' W 122°21'0 0.0
2015-Jan-21 22:26N 47°33' W 122°21'0 0.0
2015-Jan-21 21:20N 47°33' W 122°21'0 0.0
2015-Jan-21 21:20N 47°33' W 122°21'0 0.0
2015-Jan-21 20:32N 47°33' W 122°21'0 0.0
2015-Jan-21 19:35N 47°33' W 122°21'0 0.0
2015-Jan-21 19:32N 47°33' W 122°21'0 0.0
2015-Jan-21 19:20N 47°33' W 122°21'0 0.0
2015-Jan-21 18:32N 47°33' W 122°21'0 0.0
2015-Jan-21 18:05N 47°33' W 122°21'0 0.0
2015-Jan-21 17:32N 47°33' W 122°21'0 0.0
2015-Jan-21 17:29N 47°33' W 122°21'0 0.0
2015-Jan-21 16:32N 47°33' W 122°21'0 0.1
2015-Jan-21 16:29N 47°33' W 122°21'0 0.0
2015-Jan-21 15:29N 47°33' W 122°21'0 0.0
2015-Jan-21 14:32N 47°33' W 122°21'0 0.0
2015-Jan-21 14:29N 47°33' W 122°21'0 0.0
2015-Jan-21 13:29N 47°33' W 122°21'0 0.0
2015-Jan-21 12:32N 47°33' W 122°21'0 0.0
2015-Jan-21 12:29N 47°33' W 122°21'0 0.0
2015-Jan-21 11:32N 47°33' W 122°21'0 0.0
2015-Jan-21 11:22N 47°33' W 122°21'0 0.0
2015-Jan-21 10:29N 47°33' W 122°21'0 0.1
2015-Jan-21 10:22N 47°33' W 122°21'0 0.0
2015-Jan-21 09:32N 47°33' W 122°21'0 0.0
2015-Jan-21 09:22N 47°33' W 122°21'0 0.0
2015-Jan-21 08:29N 47°33' W 122°21'0 0.1
2015-Jan-21 08:22N 47°33' W 122°21'0 0.0
2015-Jan-21 06:52N 47°33' W 122°21'0 0.0
2015-Jan-21 06:29N 47°33' W 122°21'0 0.0
2015-Jan-21 05:23N 47°33' W 122°21'0 0.0
2015-Jan-21 05:22N 47°33' W 122°21'0 0.0
2015-Jan-21 03:04N 47°33' W 122°21'0 0.1
2015-Jan-21 02:43N 47°33' W 122°21'0 0.0
2015-Jan-21 02:31N 47°33' W 122°21'0 0.0
2015-Jan-21 02:28N 47°33' W 122°21'0 0.0
2015-Jan-21 01:31N 47°33' W 122°21'0 0.0
2015-Jan-21 01:07N 47°33' W 122°21'0 0.0
2015-Jan-21 00:31N 47°33' W 122°21'0 0.0
2015-Jan-21 00:22N 47°33' W 122°21'0 0.0
2015-Jan-20 23:28N 47°33' W 122°21'0 0.0
2015-Jan-20 23:07N 47°33' W 122°21'0 0.0
2015-Jan-20 22:22N 47°33' W 122°21'0 0.0
2015-Jan-20 22:22N 47°33' W 122°21'0 0.0
2015-Jan-20 20:31N 47°33' W 122°21'0 0.0
2015-Jan-20 20:31N 47°33' W 122°21'0 0.0
2015-Jan-20 19:31N 47°33' W 122°21'0 0.0
2015-Jan-20 19:31N 47°33' W 122°21'0 0.0
2015-Jan-20 18:28N 47°33' W 122°21'0 0.0
2015-Jan-20 17:10N 47°33' W 122°21'0 0.0
2015-Jan-20 16:22N 47°33' W 122°21'0 0.0
2015-Jan-20 15:19N 47°33' W 122°21'0 0.0
2015-Jan-20 14:19N 47°33' W 122°21'0 0.0
2015-Jan-20 14:01N 47°33' W 122°21'0 0.0
2015-Jan-20 12:13N 47°33' W 122°21'0 0.0
2015-Jan-20 08:37N 47°33' W 122°21'0 0.0
2015-Jan-20 07:52N 47°33' W 122°21'0 0.0
2015-Jan-20 07:16N 47°33' W 122°21'0 0.0
2015-Jan-20 06:58N 47°33' W 122°21'0 0.0
2015-Jan-20 06:22N 47°33' W 122°21'0 0.0
2015-Jan-20 05:31N 47°33' W 122°21'0 0.0
2015-Jan-20 05:28N 47°33' W 122°21'0 0.0
2015-Jan-20 04:04N 47°33' W 122°21'0 0.0
2015-Jan-20 04:01N 47°33' W 122°21'0 0.0
2015-Jan-20 03:32N 47°33' W 122°21'0 0.0
2015-Jan-20 03:31N 47°33' W 122°21'0 0.0
2015-Jan-20 02:30N 47°33' W 122°21'0 0.0
2015-Jan-20 02:16N 47°33' W 122°21'0 0.0
2015-Jan-20 01:30N 47°33' W 122°21'0 0.0
2015-Jan-20 01:19N 47°33' W 122°21'0 0.0
2015-Jan-20 00:31N 47°33' W 122°21'0 0.0
2015-Jan-20 00:30N 47°33' W 122°21'0 0.0
2015-Jan-19 23:28N 47°33' W 122°21'0 0.0
2015-Jan-19 23:15N 47°33' W 122°21'0 0.0
2015-Jan-19 22:28N 47°33' W 122°21'0 0.0
2015-Jan-19 22:15N 47°33' W 122°21'0 0.0
2015-Jan-19 21:28N 47°33' W 122°21'0 0.0
2015-Jan-19 21:24N 47°33' W 122°21'0 0.0
2015-Jan-19 20:31N 47°33' W 122°21'0 0.0
2015-Jan-19 20:30N 47°33' W 122°21'0 0.0
2015-Jan-19 19:28N 47°33' W 122°21'0 0.0
2015-Jan-19 19:09N 47°33' W 122°21'0 0.0
2015-Jan-19 18:31N 47°33' W 122°21'0 0.0
2015-Jan-19 18:24N 47°33' W 122°21'0 0.0
2015-Jan-19 17:28N 47°33' W 122°21'0 0.0
2015-Jan-19 14:21N 47°33' W 122°21'0 0.0
2015-Jan-19 14:18N 47°33' W 122°21'0 0.0
2015-Jan-19 13:30N 47°33' W 122°21'0 0.0
2015-Jan-19 13:24N 47°33' W 122°21'0 0.0
2015-Jan-19 12:33N 47°33' W 122°21'0 0.0
2015-Jan-19 12:18N 47°33' W 122°21'0 0.0
2015-Jan-19 11:30N 47°33' W 122°21'0 0.0
2015-Jan-19 10:24N 47°33' W 122°21'0 0.0
2015-Jan-19 10:03N 47°33' W 122°21'0 0.0
2015-Jan-19 09:33N 47°33' W 122°21'0 0.0
2015-Jan-19 09:03N 47°33' W 122°21'0 0.0
2015-Jan-19 07:03N 47°33' W 122°21'0 0.1
2015-Jan-19 07:00N 47°33' W 122°21'0 0.0
2015-Jan-19 06:33N 47°33' W 122°21'0 0.0
2015-Jan-19 05:30N 47°33' W 122°21'0 0.0
2015-Jan-19 05:30N 47°33' W 122°21'0 0.0
2015-Jan-19 04:27N 47°33' W 122°21'0 0.0
2015-Jan-19 03:24N 47°33' W 122°21'0 0.0
2015-Jan-19 02:21N 47°33' W 122°21'0 0.0
2015-Jan-19 01:18N 47°33' W 122°21'0 0.0
2015-Jan-19 01:00N 47°33' W 122°21'0 0.0
2015-Jan-19 00:30N 47°33' W 122°21'0 0.0
2015-Jan-19 00:30N 47°33' W 122°21'0 0.0
2015-Jan-18 23:12N 47°33' W 122°21'0 0.0
2015-Jan-18 21:12N 47°33' W 122°21'0 0.0
2015-Jan-18 19:54N 47°33' W 122°21'0 0.0
2015-Jan-18 17:30N 47°33' W 122°21'0 0.0
2015-Jan-18 17:09N 47°33' W 122°21'0 0.0
2015-Jan-18 16:33N 47°33' W 122°21'0 0.0
2015-Jan-18 16:24N 47°33' W 122°21'0 0.0
2015-Jan-18 15:33N 47°33' W 122°21'0 0.0
2015-Jan-18 15:09N 47°33' W 122°21'0 0.0
2015-Jan-18 14:33N 47°33' W 122°21'0 0.0
2015-Jan-18 14:24N 47°33' W 122°21'0 0.0
2015-Jan-18 13:33N 47°33' W 122°21'0 0.0
2015-Jan-18 13:24N 47°33' W 122°21'0 0.0
2015-Jan-18 12:33N 47°33' W 122°21'0 0.0
2015-Jan-18 12:23N 47°33' W 122°21'0 0.0
2015-Jan-18 11:33N 47°33' W 122°21'0 0.0
2015-Jan-18 11:23N 47°33' W 122°21'0 0.0
2015-Jan-18 10:33N 47°33' W 122°21'0 0.0
2015-Jan-18 10:23N 47°33' W 122°21'0 0.0
2015-Jan-18 09:33N 47°33' W 122°21'0 0.0
2015-Jan-18 09:08N 47°33' W 122°21'0 0.0
2015-Jan-18 08:33N 47°33' W 122°21'0 0.0
2015-Jan-18 08:23N 47°33' W 122°21'0 0.0
2015-Jan-18 07:33N 47°33' W 122°21'0 0.0
2015-Jan-18 07:08N 47°33' W 122°21'0 0.0
2015-Jan-18 06:33N 47°33' W 122°21'0 0.0
2015-Jan-18 06:32N 47°33' W 122°21'0 0.0
2015-Jan-18 05:26N 47°33' W 122°21'0 0.0
2015-Jan-18 05:17N 47°33' W 122°21'0 0.0
2015-Jan-18 03:56N 47°33' W 122°21'0 0.0
2015-Jan-18 03:29N 47°33' W 122°21'0 0.0
2015-Jan-18 03:26N 47°33' W 122°21'0 0.0
2015-Jan-18 02:26N 47°33' W 122°21'0 0.0
2015-Jan-18 02:20N 47°33' W 122°21'0 0.0
2015-Jan-18 01:32N 47°33' W 122°21'0 0.0
2015-Jan-18 01:14N 47°33' W 122°21'0 0.0
2015-Jan-17 20:14N 47°33' W 122°21'0 0.0
2015-Jan-17 20:14N 47°33' W 122°21'0 0.0
2015-Jan-17 19:32N 47°33' W 122°21'0 0.1
2015-Jan-17 19:29N 47°33' W 122°21'0 0.0
2015-Jan-17 18:32N 47°33' W 122°21'0 0.0
2015-Jan-17 18:29N 47°33' W 122°21'0 0.0
2015-Jan-17 17:32N 47°33' W 122°21'0 0.1
2015-Jan-17 17:29N 47°33' W 122°21'0 0.0
2015-Jan-17 15:41N 47°33' W 122°21'0 0.0
2015-Jan-17 15:29N 47°33' W 122°21'0 0.0
2015-Jan-17 15:26N 47°33' W 122°21'0 0.0
2015-Jan-17 14:23N 47°33' W 122°21'0 0.0
2015-Jan-17 14:05N 47°33' W 122°21'  

Dump ship's entire track history